Time;durP1;ratioP1;P1;durP2;ratioP2;P2;SDS_P1;SDS_P2;PMS_P1;PMS_P2;Temp;Humidity;BMP_temperature;BMP_pressure;BME280_temperature;BME280_humidity;BME280_pressure;Samples;Min_cycle;Max_cycle;Signal;HPM_P1;HPM_P2
2022/06/09 00:01:49;;;;;;;;;;;14.90;99.90;;;;;;5035485;28;19921;-76
2022/06/09 00:04:16;;;;;;;;;;;14.90;99.90;;;;;;5035294;28;19943;-77
2022/06/09 00:06:43;;;;;;;;;;;14.90;99.90;;;;;;5034212;28;19917;-76
2022/06/09 00:09:09;;;;;;;;;;;14.90;99.90;;;;;;5034721;28;19968;-76
2022/06/09 00:11:36;;;;;;;;;;;14.90;99.90;;;;;;5018401;28;19917;-76
2022/06/09 00:14:01;;;;;;;;;;;14.90;99.90;;;;;;5034066;28;19917;-76
2022/06/09 00:16:27;;;;;;;;;;;14.90;99.90;;;;;;5035700;28;19944;-75
2022/06/09 00:18:52;;;;;;;;;;;14.90;99.90;;;;;;5035088;28;19920;-77
2022/06/09 00:21:18;;;;;;;;;;;14.90;99.90;;;;;;5034997;28;19924;-76
2022/06/09 00:23:44;;;;;;;;;;;14.90;99.90;;;;;;5035766;28;19917;-76
2022/06/09 00:26:09;;;;;;;;;;;14.80;99.90;;;;;;5035073;28;19917;-76
2022/06/09 00:28:35;;;;;;;;;;;14.90;99.90;;;;;;5034681;28;19917;-76
2022/06/09 00:31:00;;;;;;;;;;;14.90;99.90;;;;;;5034878;28;20277;-76
2022/06/09 00:33:26;;;;;;;;;;;14.80;99.90;;;;;;5034664;28;19917;-76
2022/06/09 00:35:51;;;;;;;;;;;14.80;99.90;;;;;;5035190;28;19917;-76
2022/06/09 00:38:17;;;;;;;;;;;14.90;99.90;;;;;;5043370;28;19916;-72
2022/06/09 00:40:43;;;;;;;;;;;14.80;99.90;;;;;;5055724;28;19913;-71
2022/06/09 00:43:09;;;;;;;;;;;14.80;99.90;;;;;;5055694;28;19917;-71
2022/06/09 00:45:35;;;;;;;;;;;14.80;99.90;;;;;;5053085;28;19921;-73
2022/06/09 00:48:13;;;;;;;;;;;14.80;99.90;;;;;;5050029;28;19917;-77
2022/06/09 00:50:39;;;;;;;;;;;14.80;99.90;;;;;;5017202;28;20250;-77
2022/06/09 00:53:05;;;;;;;;;;;14.80;99.90;;;;;;5035148;28;19916;-76
2022/06/09 00:55:31;;;;;;;;;;;14.80;99.90;;;;;;5033342;28;19963;-76
2022/06/09 00:57:59;;;;;;;;;;;14.80;99.90;;;;;;5034493;28;20315;-76
2022/06/09 01:00:27;;;;;;;;;;;14.80;99.90;;;;;;5034326;28;20055;-76
2022/06/09 01:02:53;;;;;;;;;;;14.80;99.90;;;;;;5034337;28;19928;-76
2022/06/09 01:05:19;;;;;;;;;;;14.80;99.90;;;;;;5033152;28;20269;-76
2022/06/09 01:07:46;;;;;;;;;;;14.80;99.90;;;;;;5033197;28;19932;-76
2022/06/09 01:10:11;;;;;;;;;;;14.80;99.90;;;;;;5033107;28;20380;-76
2022/06/09 01:12:41;;;;;;;;;;;14.70;99.90;;;;;;5016869;28;19916;-76
2022/06/09 01:15:08;;;;;;;;;;;14.80;99.90;;;;;;5034766;28;20318;-76
2022/06/09 01:17:43;;;;;;;;;;;14.80;99.90;;;;;;5033477;28;20346;-76
2022/06/09 01:20:35;;;;;;;;;;;14.70;99.90;;;;;;5033398;28;19916;-76
2022/06/09 01:23:03;;;;;;;;;;;14.70;99.90;;;;;;5031002;28;19917;-76
2022/06/09 01:25:29;;;;;;;;;;;14.70;99.90;;;;;;5034213;28;20373;-76
2022/06/09 01:27:57;;;;;;;;;;;14.70;99.90;;;;;;5034188;28;20014;-75
2022/06/09 01:30:32;;;;;;;;;;;14.70;99.90;;;;;;5034836;28;19920;-79
2022/06/09 01:32:58;;;;;;;;;;;14.70;99.90;;;;;;5034116;28;19940;-76
2022/06/09 01:35:24;;;;;;;;;;;14.70;99.90;;;;;;5034316;28;19917;-80
2022/06/09 01:37:51;;;;;;;;;;;14.60;99.90;;;;;;5034492;28;20417;-76
2022/06/09 01:40:17;;;;;;;;;;;14.60;99.90;;;;;;5016325;28;19921;-76
2022/06/09 01:42:43;;;;;;;;;;;14.60;99.90;;;;;;5032940;28;19967;-76
2022/06/09 01:45:10;;;;;;;;;;;14.60;99.90;;;;;;5016294;28;19968;-76
2022/06/09 01:47:59;;;;;;;;;;;14.60;99.90;;;;;;5033866;28;20344;-76
2022/06/09 01:50:37;;;;;;;;;;;14.60;99.90;;;;;;5008527;28;19967;-77
2022/06/09 01:53:04;;;;;;;;;;;14.60;99.90;;;;;;5033899;28;19937;-76
2022/06/09 01:55:31;;;;;;;;;;;14.60;99.90;;;;;;5016390;28;19923;-76
2022/06/09 01:57:57;;;;;;;;;;;14.60;99.90;;;;;;5035071;28;19971;-76
2022/06/09 02:00:23;;;;;;;;;;;14.60;99.90;;;;;;5020396;28;19940;-76
2022/06/09 02:03:08;;;;;;;;;;;14.60;99.90;;;;;;5037580;28;20230;-76
2022/06/09 02:05:37;;;;;;;;;;;14.50;99.90;;;;;;5036703;28;19917;-76
2022/06/09 02:08:04;;;;;;;;;;;14.50;99.90;;;;;;5036451;28;19959;-77
2022/06/09 02:10:34;;;;;;;;;;;14.50;99.90;;;;;;5036361;28;20012;-80
2022/06/09 02:13:04;;;;;;;;;;;14.50;99.90;;;;;;5036967;28;19924;-76
2022/06/09 02:15:31;;;;;;;;;;;14.50;99.90;;;;;;5036592;28;19921;-76
2022/06/09 02:17:57;;;;;;;;;;;14.50;99.90;;;;;;5020591;28;19917;-77
2022/06/09 02:20:22;;;;;;;;;;;14.40;99.90;;;;;;5038205;28;19921;-76
2022/06/09 02:22:48;;;;;;;;;;;14.40;99.90;;;;;;5021638;28;20011;-76
2022/06/09 02:25:14;;;;;;;;;;;14.40;99.90;;;;;;5037381;28;19956;-76
2022/06/09 02:27:39;;;;;;;;;;;14.40;99.90;;;;;;5046219;28;19917;-72
2022/06/09 02:30:05;;;;;;;;;;;14.40;99.90;;;;;;5057613;28;19917;-72
2022/06/09 02:32:32;;;;;;;;;;;14.40;99.90;;;;;;5058082;28;19917;-71
2022/06/09 02:34:58;;;;;;;;;;;14.40;99.90;;;;;;5057467;28;19917;-71
2022/06/09 02:37:24;;;;;;;;;;;14.40;99.90;;;;;;5045755;28;19965;-76
2022/06/09 02:39:49;;;;;;;;;;;14.30;99.90;;;;;;5037102;28;19917;-76
2022/06/09 02:42:15;;;;;;;;;;;14.30;99.90;;;;;;5037054;28;19926;-76
2022/06/09 02:44:40;;;;;;;;;;;14.30;99.90;;;;;;5037167;28;19924;-76
2022/06/09 02:47:06;;;;;;;;;;;14.30;99.90;;;;;;5036873;28;19917;-76
2022/06/09 02:49:31;;;;;;;;;;;14.30;99.90;;;;;;5035586;28;19917;-78
2022/06/09 02:51:57;;;;;;;;;;;14.30;99.90;;;;;;5036732;28;20256;-76
2022/06/09 02:54:22;;;;;;;;;;;14.20;99.90;;;;;;5037016;28;20351;-76
2022/06/09 02:56:48;;;;;;;;;;;14.20;99.90;;;;;;5037523;28;20349;-76
2022/06/09 02:59:13;;;;;;;;;;;14.20;99.90;;;;;;5036595;28;19983;-76
2022/06/09 03:01:39;;;;;;;;;;;14.20;99.90;;;;;;5035625;28;19917;-76
2022/06/09 03:04:05;;;;;;;;;;;14.20;99.90;;;;;;5035321;28;20000;-76
2022/06/09 03:06:30;;;;;;;;;;;14.10;99.90;;;;;;5037171;28;19924;-76
2022/06/09 03:08:56;;;;;;;;;;;14.10;99.90;;;;;;5035232;28;19920;-76
2022/06/09 03:11:22;;;;;;;;;;;14.20;99.90;;;;;;5036282;28;19917;-76
2022/06/09 03:13:47;;;;;;;;;;;14.10;99.90;;;;;;5020633;28;19924;-76
2022/06/09 03:16:13;;;;;;;;;;;14.10;99.90;;;;;;5037613;28;19943;-74
2022/06/09 03:18:39;;;;;;;;;;;14.10;99.90;;;;;;5036821;28;20257;-76
2022/06/09 03:21:04;;;;;;;;;;;14.20;99.90;;;;;;5037043;28;19952;-76
2022/06/09 03:23:31;;;;;;;;;;;14.10;99.90;;;;;;5037032;28;20324;-75
2022/06/09 03:25:57;;;;;;;;;;;14.10;99.90;;;;;;5039113;28;20284;-75
2022/06/09 03:28:23;;;;;;;;;;;14.00;99.90;;;;;;5039332;28;19921;-74
2022/06/09 03:30:49;;;;;;;;;;;14.00;99.90;;;;;;5037478;28;19917;-75
2022/06/09 03:33:14;;;;;;;;;;;14.00;99.90;;;;;;5036967;28;19917;-76
2022/06/09 03:35:40;;;;;;;;;;;14.00;99.90;;;;;;5038530;28;19917;-73
2022/06/09 03:38:05;;;;;;;;;;;14.00;99.90;;;;;;5020731;28;20003;-74
2022/06/09 03:40:31;;;;;;;;;;;14.00;99.90;;;;;;5037923;28;19917;-76
2022/06/09 03:42:57;;;;;;;;;;;14.00;99.90;;;;;;5037505;28;19924;-75
2022/06/09 03:45:22;;;;;;;;;;;14.00;99.90;;;;;;5037175;28;19921;-75
2022/06/09 03:47:48;;;;;;;;;;;14.00;99.90;;;;;;5036516;28;19924;-76
2022/06/09 03:50:15;;;;;;;;;;;14.00;99.90;;;;;;5037516;28;19917;-76
2022/06/09 03:52:40;;;;;;;;;;;14.00;99.90;;;;;;5018966;28;20357;-76
2022/06/09 03:55:06;;;;;;;;;;;14.00;99.90;;;;;;5036231;28;20011;-76
2022/06/09 03:57:31;;;;;;;;;;;14.00;99.90;;;;;;5036979;28;19917;-77
2022/06/09 03:59:57;;;;;;;;;;;13.90;99.90;;;;;;5035716;28;19916;-75
2022/06/09 04:02:23;;;;;;;;;;;14.00;99.90;;;;;;5035906;28;19921;-76
2022/06/09 04:04:49;;;;;;;;;;;14.10;99.90;;;;;;5018251;28;19956;-79
2022/06/09 04:07:15;;;;;;;;;;;14.00;99.90;;;;;;5019678;28;20215;-76
2022/06/09 04:09:40;;;;;;;;;;;14.00;99.90;;;;;;5019599;28;19917;-76
2022/06/09 04:12:06;;;;;;;;;;;14.00;99.90;;;;;;5018229;28;20007;-76
2022/06/09 04:14:32;;;;;;;;;;;14.00;99.90;;;;;;5036380;28;20277;-76
2022/06/09 04:16:57;;;;;;;;;;;14.00;99.90;;;;;;5056053;28;19905;-70
2022/06/09 04:19:23;;;;;;;;;;;14.00;99.90;;;;;;5056735;28;19917;-71
2022/06/09 04:21:48;;;;;;;;;;;14.10;99.90;;;;;;5039329;28;19917;-72
2022/06/09 04:24:14;;;;;;;;;;;14.10;99.90;;;;;;5039861;28;20389;-75
2022/06/09 04:26:40;;;;;;;;;;;14.00;99.90;;;;;;5034611;28;20357;-76
2022/06/09 04:29:06;;;;;;;;;;;14.00;99.90;;;;;;5036914;28;19983;-81
2022/06/09 04:31:32;;;;;;;;;;;14.10;99.90;;;;;;5034516;28;20372;-79
2022/06/09 04:33:57;;;;;;;;;;;14.10;99.90;;;;;;5035727;28;19924;-79
2022/06/09 04:36:23;;;;;;;;;;;14.10;99.90;;;;;;5018117;28;19917;-79
2022/06/09 04:38:48;;;;;;;;;;;14.10;99.90;;;;;;5017941;28;19923;-79
2022/06/09 04:41:14;;;;;;;;;;;14.10;99.90;;;;;;5017411;28;20342;-79
2022/06/09 04:43:40;;;;;;;;;;;14.10;99.90;;;;;;5017862;28;19917;-80
2022/06/09 04:46:06;;;;;;;;;;;14.10;99.90;;;;;;5017207;28;19917;-79
2022/06/09 04:48:35;;;;;;;;;;;14.10;99.90;;;;;;5033545;28;20012;-79
2022/06/09 04:51:00;;;;;;;;;;;14.10;99.90;;;;;;5034607;28;20345;-79
2022/06/09 04:53:26;;;;;;;;;;;14.10;99.90;;;;;;5034673;28;19917;-79
2022/06/09 04:55:52;;;;;;;;;;;14.10;99.90;;;;;;5018178;28;20071;-79
2022/06/09 04:58:17;;;;;;;;;;;14.00;99.90;;;;;;5018081;28;20313;-79
2022/06/09 05:00:43;;;;;;;;;;;14.00;99.90;;;;;;5017179;28;20368;-79
2022/06/09 05:03:11;;;;;;;;;;;14.00;99.90;;;;;;5034321;28;19970;-79
2022/06/09 05:05:38;;;;;;;;;;;14.00;99.90;;;;;;5033349;28;19924;-80
2022/06/09 05:08:04;;;;;;;;;;;14.00;99.90;;;;;;5016867;28;19917;-80
2022/06/09 05:10:29;;;;;;;;;;;14.00;99.90;;;;;;5000765;28;19917;-79
2022/06/09 05:12:55;;;;;;;;;;;14.00;99.90;;;;;;5000730;28;20249;-79
2022/06/09 05:15:20;;;;;;;;;;;14.10;99.90;;;;;;5033136;28;19917;-79
2022/06/09 05:17:46;;;;;;;;;;;14.10;99.90;;;;;;5016632;28;19928;-79
2022/06/09 05:20:12;;;;;;;;;;;14.10;99.90;;;;;;5016875;28;19916;-80
2022/06/09 05:22:38;;;;;;;;;;;14.10;99.90;;;;;;5016793;28;19917;-80
2022/06/09 05:25:03;;;;;;;;;;;14.20;99.90;;;;;;5016942;28;19924;-79
2022/06/09 05:27:29;;;;;;;;;;;14.20;99.90;;;;;;5017143;28;20252;-79
2022/06/09 05:29:55;;;;;;;;;;;14.20;99.90;;;;;;5034622;28;20276;-79
2022/06/09 05:32:21;;;;;;;;;;;14.30;99.90;;;;;;5020172;28;20344;-79
2022/06/09 05:34:47;;;;;;;;;;;14.30;99.90;;;;;;5024144;28;20257;-79
2022/06/09 05:37:13;;;;;;;;;;;14.40;99.90;;;;;;5023332;28;19921;-79
2022/06/09 05:45:11;;;;;;;;;;;14.30;99.90;;;;;;5013982;28;19964;-80
2022/06/09 05:47:37;;;;;;;;;;;14.40;99.90;;;;;;5023130;28;19916;-78
2022/06/09 05:50:02;;;;;;;;;;;14.40;99.90;;;;;;5040719;28;20352;-79
2022/06/09 05:52:28;;;;;;;;;;;14.40;99.90;;;;;;5040684;28;20414;-80
2022/06/09 05:54:54;;;;;;;;;;;14.40;99.90;;;;;;5036557;28;19916;-80
2022/06/09 05:57:19;;;;;;;;;;;14.40;99.90;;;;;;5040309;28;19917;-80
2022/06/09 05:59:45;;;;;;;;;;;14.50;99.90;;;;;;5034708;28;20008;-80
2022/06/09 06:02:11;;;;;;;;;;;14.60;99.90;;;;;;5039985;28;19920;-81
2022/06/09 06:04:36;;;;;;;;;;;14.60;99.90;;;;;;5060343;28;19917;-75
2022/06/09 06:07:02;;;;;;;;;;;14.60;99.90;;;;;;5062248;28;19924;-78
2022/06/09 06:09:27;;;;;;;;;;;14.60;99.90;;;;;;5060744;28;19921;-73
2022/06/09 06:11:53;;;;;;;;;;;14.70;99.90;;;;;;5049268;28;19921;-76
2022/06/09 06:14:19;;;;;;;;;;;14.80;99.90;;;;;;5040387;28;19917;-77
2022/06/09 06:16:44;;;;;;;;;;;14.90;99.90;;;;;;5040363;28;19952;-76
2022/06/09 06:19:12;;;;;;;;;;;15.00;99.90;;;;;;5006489;28;19924;-79
2022/06/09 06:21:37;;;;;;;;;;;15.00;99.90;;;;;;5040182;28;19944;-76
2022/06/09 06:24:03;;;;;;;;;;;15.10;99.90;;;;;;5040166;28;19917;-76
2022/06/09 06:26:29;;;;;;;;;;;15.20;99.90;;;;;;5040831;28;19916;-76
2022/06/09 06:28:55;;;;;;;;;;;15.30;99.90;;;;;;5038920;28;19917;-75
2022/06/09 06:31:20;;;;;;;;;;;15.30;99.90;;;;;;5038955;28;19998;-76
2022/06/09 06:33:46;;;;;;;;;;;15.40;99.90;;;;;;5040233;28;19917;-76
2022/06/09 06:36:11;;;;;;;;;;;15.50;99.90;;;;;;5040146;28;19960;-76
2022/06/09 06:38:37;;;;;;;;;;;15.60;99.90;;;;;;5040879;28;19917;-77
2022/06/09 06:41:04;;;;;;;;;;;15.70;99.90;;;;;;5040320;28;19921;-77
2022/06/09 06:43:29;;;;;;;;;;;15.80;99.90;;;;;;5021302;28;20412;-75
2022/06/09 06:45:55;;;;;;;;;;;16.00;99.90;;;;;;5003641;28;20012;-76
2022/06/09 06:48:21;;;;;;;;;;;16.10;99.90;;;;;;5019519;28;19924;-75
2022/06/09 06:50:46;;;;;;;;;;;16.00;99.90;;;;;;5037234;28;19956;-75
2022/06/09 06:53:12;;;;;;;;;;;16.10;99.90;;;;;;5037242;28;19944;-76
2022/06/09 06:55:38;;;;;;;;;;;16.10;99.90;;;;;;5019680;28;19939;-76
2022/06/09 06:58:03;;;;;;;;;;;16.10;99.90;;;;;;5035543;28;19970;-76
2022/06/09 07:00:29;;;;;;;;;;;16.20;99.90;;;;;;5037261;28;19917;-75
2022/06/09 07:02:54;;;;;;;;;;;16.20;99.90;;;;;;5019004;28;20011;-75
2022/06/09 07:05:21;;;;;;;;;;;16.20;99.90;;;;;;5019004;28;19916;-76
2022/06/09 07:07:46;;;;;;;;;;;16.30;99.90;;;;;;5036647;28;20300;-76
2022/06/09 07:10:13;;;;;;;;;;;16.30;99.90;;;;;;5037655;28;19921;-76
2022/06/09 07:12:38;;;;;;;;;;;16.30;99.90;;;;;;5036476;28;19951;-77
2022/06/09 07:15:04;;;;;;;;;;;16.40;99.90;;;;;;5036479;28;19917;-77
2022/06/09 07:17:30;;;;;;;;;;;16.50;99.90;;;;;;5035725;28;19924;-76
2022/06/09 07:19:55;;;;;;;;;;;16.60;99.90;;;;;;5036349;28;19917;-75
2022/06/09 07:22:21;;;;;;;;;;;16.80;99.90;;;;;;5002572;28;19924;-76
2022/06/09 07:24:47;;;;;;;;;;;17.00;99.90;;;;;;5036333;28;19999;-76
2022/06/09 07:27:12;;;;;;;;;;;17.20;99.90;;;;;;5035101;28;20388;-77
2022/06/09 07:29:38;;;;;;;;;;;17.30;99.90;;;;;;5036466;28;20005;-76
2022/06/09 07:32:04;;;;;;;;;;;17.40;99.90;;;;;;5035080;28;19924;-75
2022/06/09 07:34:30;;;;;;;;;;;17.50;99.90;;;;;;5019670;28;19963;-76
2022/06/09 07:36:55;;;;;;;;;;;17.60;99.90;;;;;;5037330;28;19940;-75
2022/06/09 07:39:21;;;;;;;;;;;17.70;99.90;;;;;;5024560;28;19943;-76
2022/06/09 07:41:46;;;;;;;;;;;17.80;99.90;;;;;;5041520;28;19917;-76
2022/06/09 07:44:12;;;;;;;;;;;17.80;99.90;;;;;;5051685;28;19928;-76
2022/06/09 07:46:39;;;;;;;;;;;17.90;99.90;;;;;;5045514;28;19985;-76
2022/06/09 07:49:06;;;;;;;;;;;17.90;99.90;;;;;;5043586;28;19916;-79
2022/06/09 07:51:31;;;;;;;;;;;18.00;99.90;;;;;;5060331;28;19927;-81
2022/06/09 07:53:57;;;;;;;;;;;18.00;99.90;;;;;;5059790;28;19905;-79
2022/06/09 07:56:23;;;;;;;;;;;18.10;99.90;;;;;;5059731;28;19968;-77
2022/06/09 07:58:48;;;;;;;;;;;18.20;99.90;;;;;;5056202;28;19921;-76
2022/06/09 08:01:14;;;;;;;;;;;18.20;99.90;;;;;;5035980;28;19972;-77
2022/06/09 08:03:41;;;;;;;;;;;18.30;99.90;;;;;;5018195;28;19924;-77
2022/06/09 08:06:07;;;;;;;;;;;18.40;99.90;;;;;;5036122;28;20023;-77
2022/06/09 08:08:33;;;;;;;;;;;18.50;99.90;;;;;;5034195;28;20398;-77
2022/06/09 08:10:58;;;;;;;;;;;18.60;99.90;;;;;;5035807;28;19924;-77
2022/06/09 08:13:24;;;;;;;;;;;18.70;99.90;;;;;;5034477;28;19917;-77
2022/06/09 08:15:49;;;;;;;;;;;18.60;99.90;;;;;;5036246;28;19917;-77
2022/06/09 08:18:15;;;;;;;;;;;18.60;99.90;;;;;;5035581;28;20303;-75
2022/06/09 08:20:42;;;;;;;;;;;18.50;99.90;;;;;;5035946;28;20329;-76
2022/06/09 08:23:08;;;;;;;;;;;18.50;99.90;;;;;;5017761;28;19924;-76
2022/06/09 08:25:34;;;;;;;;;;;18.50;99.90;;;;;;5035579;28;19917;-77
2022/06/09 08:28:00;;;;;;;;;;;18.50;99.90;;;;;;5034248;28;20079;-76
2022/06/09 08:30:25;;;;;;;;;;;18.60;99.90;;;;;;5035979;28;19979;-76
2022/06/09 08:32:51;;;;;;;;;;;18.70;99.90;;;;;;5035357;28;19924;-76
2022/06/09 08:35:16;;;;;;;;;;;18.70;99.90;;;;;;5036531;28;19925;-76
2022/06/09 08:37:43;;;;;;;;;;;18.70;99.90;;;;;;5033896;28;19968;-76
2022/06/09 08:40:15;;;;;;;;;;;18.70;99.90;;;;;;5035467;28;20005;-76
2022/06/09 08:42:41;;;;;;;;;;;18.70;99.90;;;;;;5034180;28;19917;-76
2022/06/09 08:45:14;;;;;;;;;;;18.60;99.90;;;;;;5034986;28;19916;-76
2022/06/09 08:47:41;;;;;;;;;;;18.60;99.90;;;;;;5035030;28;20292;-76
2022/06/09 08:50:13;;;;;;;;;;;18.60;99.90;;;;;;5033910;28;19943;-76
2022/06/09 08:52:46;;;;;;;;;;;18.60;99.90;;;;;;5035864;28;19941;-76
2022/06/09 08:55:30;;;;;;;;;;;18.70;99.90;;;;;;5033796;28;19917;-80
2022/06/09 08:57:58;;;;;;;;;;;18.70;99.90;;;;;;5034908;28;20352;-84
2022/06/09 09:00:24;;;;;;;;;;;18.80;99.90;;;;;;5017363;28;19917;-80
2022/06/09 09:02:51;;;;;;;;;;;18.90;99.90;;;;;;5017106;28;20020;-81
2022/06/09 09:05:20;;;;;;;;;;;19.00;99.90;;;;;;5033477;28;19925;-78
2022/06/09 09:07:46;;;;;;;;;;;19.10;99.90;;;;;;5033713;28;19928;-78
2022/06/09 09:10:18;;;;;;;;;;;19.10;99.90;;;;;;5034563;28;20312;-79
2022/06/09 09:12:57;;;;;;;;;;;19.00;99.90;;;;;;5017135;28;20246;-79
2022/06/09 09:15:28;;;;;;;;;;;19.00;99.90;;;;;;5034574;28;19928;-79
2022/06/09 09:18:07;;;;;;;;;;;18.90;99.90;;;;;;5017346;28;20304;-80
2022/06/09 09:20:37;;;;;;;;;;;18.90;99.90;;;;;;5017126;28;19921;-80
2022/06/09 09:23:07;;;;;;;;;;;18.80;99.90;;;;;;5017908;28;19921;-78
2022/06/09 09:25:39;;;;;;;;;;;18.80;99.90;;;;;;5017012;28;20288;-76
2022/06/09 09:28:08;;;;;;;;;;;18.80;99.90;;;;;;5017208;28;19917;-80
2022/06/09 09:30:39;;;;;;;;;;;18.80;99.90;;;;;;5020267;28;19955;-80
2022/06/09 09:33:05;;;;;;;;;;;18.80;99.90;;;;;;5017093;28;19924;-80
2022/06/09 09:35:30;;;;;;;;;;;18.80;99.90;;;;;;5016687;28;19921;-80
2022/06/09 09:37:56;;;;;;;;;;;18.90;99.90;;;;;;5051744;28;19935;-81
2022/06/09 09:40:51;;;;;;;;;;;19.00;99.90;;;;;;5058614;28;19940;-80
2022/06/09 09:43:20;;;;;;;;;;;19.20;99.90;;;;;;5027989;28;19905;-80
2022/06/09 09:45:50;;;;;;;;;;;19.30;99.90;;;;;;5040602;28;19992;-84
2022/06/09 09:48:19;;;;;;;;;;;19.50;99.90;;;;;;5041738;28;19905;-80
2022/06/09 09:50:49;;;;;;;;;;;19.50;99.90;;;;;;5041938;28;19929;-85
2022/06/09 09:53:17;;;;;;;;;;;19.60;99.90;;;;;;5040339;28;19917;-79
2022/06/09 09:55:53;;;;;;;;;;;19.60;99.90;;;;;;5017861;28;19924;-80
2022/06/09 09:58:20;;;;;;;;;;;19.50;99.90;;;;;;5001412;28;19947;-80
2022/06/09 10:00:47;;;;;;;;;;;19.40;99.90;;;;;;5034881;28;20264;-84
2022/06/09 10:09:17;;;;;;;;;;;19.50;99.90;;;;;;4992430;28;19929;-79
2022/06/09 10:11:54;;;;;;;;;;;19.60;99.90;;;;;;4992457;28;20353;-80
2022/06/09 10:14:24;;;;;;;;;;;19.60;99.90;;;;;;5017311;28;19924;-80
2022/06/09 10:16:52;;;;;;;;;;;19.70;99.90;;;;;;5033972;28;20380;-79
2022/06/09 10:19:19;;;;;;;;;;;19.80;99.90;;;;;;5019525;28;19978;-77
2022/06/09 10:21:49;;;;;;;;;;;19.90;99.90;;;;;;5036373;28;20013;-77
2022/06/09 10:24:14;;;;;;;;;;;19.90;99.90;;;;;;5020418;28;19923;-77
2022/06/09 10:26:40;;;;;;;;;;;19.90;99.60;;;;;;5019865;28;19917;-78
2022/06/09 10:29:13;;;;;;;;;;;19.90;99.90;;;;;;5036011;28;19963;-78
2022/06/09 10:31:48;;;;;;;;;;;19.90;99.90;;;;;;5037600;28;19956;-79
2022/06/09 10:34:16;;;;;;;;;;;20.00;99.90;;;;;;5036331;28;20011;-78
2022/06/09 10:37:01;;;;;;;;;;;20.10;99.90;;;;;;5037725;28;19925;-78
2022/06/09 10:39:27;;;;;;;;;;;20.10;99.90;;;;;;5036599;28;20016;-78
2022/06/09 10:41:56;;;;;;;;;;;20.10;99.50;;;;;;5037632;28;20330;-80
2022/06/09 10:44:26;;;;;;;;;;;20.10;99.30;;;;;;5035969;28;19921;-78
2022/06/09 10:55:33;;;;;;;;;;;20.30;99.90;;;;;;5037014;28;19924;-79
2022/06/09 10:58:17;;;;;;;;;;;20.20;96.60;;;;;;5002952;28;19917;-80
2022/06/09 11:00:45;;;;;;;;;;;20.10;99.50;;;;;;5019469;28;20312;-80
2022/06/09 11:03:31;;;;;;;;;;;20.10;98.20;;;;;;5037107;28;20015;-78
2022/06/09 11:05:59;;;;;;;;;;;20.20;99.20;;;;;;5037022;28;19964;-86
2022/06/09 11:08:25;;;;;;;;;;;20.20;98.80;;;;;;5003524;28;19924;-79
2022/06/09 11:10:56;;;;;;;;;;;20.30;99.00;;;;;;5036718;28;20337;-78
2022/06/09 11:13:40;;;;;;;;;;;20.30;99.60;;;;;;5036669;28;19917;-78
2022/06/09 11:16:08;;;;;;;;;;;20.40;97.80;;;;;;5018916;28;19917;-79
2022/06/09 11:18:46;;;;;;;;;;;20.40;99.70;;;;;;5036568;28;19960;-79
2022/06/09 11:21:15;;;;;;;;;;;20.30;97.50;;;;;;5036827;28;19963;-78
2022/06/09 11:23:52;;;;;;;;;;;20.20;98.30;;;;;;5036243;28;20230;-78
2022/06/09 11:26:21;;;;;;;;;;;20.30;99.40;;;;;;5037419;28;19917;-78
2022/06/09 11:28:49;;;;;;;;;;;20.30;98.10;;;;;;5018454;28;20379;-78
2022/06/09 11:31:18;;;;;;;;;;;20.40;99.90;;;;;;5035311;28;19917;-78
2022/06/09 11:34:02;;;;;;;;;;;20.50;98.80;;;;;;5036404;28;19924;-79
2022/06/09 11:36:27;;;;;;;;;;;20.60;99.50;;;;;;5036409;28;19924;-78
2022/06/09 11:39:05;;;;;;;;;;;20.70;98.20;;;;;;5036327;28;19917;-78
2022/06/09 11:41:50;;;;;;;;;;;20.70;96.70;;;;;;5048176;28;19919;-80
2022/06/09 11:44:35;;;;;;;;;;;20.80;97.70;;;;;;5060551;28;19905;-80
2022/06/09 11:47:05;;;;;;;;;;;20.80;95.60;;;;;;5042219;28;19916;-80
2022/06/09 11:49:33;;;;;;;;;;;20.80;95.90;;;;;;5056263;28;19940;-80
2022/06/09 11:52:03;;;;;;;;;;;20.80;95.40;;;;;;5060463;28;19905;-80
2022/06/09 11:54:38;;;;;;;;;;;20.80;97.90;;;;;;5043470;28;19912;-80
2022/06/09 11:57:27;;;;;;;;;;;20.90;95.20;;;;;;5060246;28;19928;-81
2022/06/09 11:59:54;;;;;;;;;;;20.90;96.50;;;;;;5052249;28;19916;-80
2022/06/09 12:02:31;;;;;;;;;;;20.90;96.40;;;;;;5040864;28;19980;-78
2022/06/09 12:05:00;;;;;;;;;;;20.90;97.30;;;;;;5003224;28;19924;-79
2022/06/09 12:07:35;;;;;;;;;;;20.90;95.60;;;;;;5035869;28;19924;-78
2022/06/09 12:10:23;;;;;;;;;;;20.80;96.10;;;;;;5036315;28;19924;-78
2022/06/09 12:13:07;;;;;;;;;;;20.70;95.80;;;;;;5035653;28;20368;-83
2022/06/09 12:15:46;;;;;;;;;;;20.50;96.00;;;;;;5035456;28;20024;-79
2022/06/09 12:18:12;;;;;;;;;;;20.40;97.40;;;;;;5036467;28;20289;-78
2022/06/09 12:20:38;;;;;;;;;;;20.20;94.20;;;;;;5037748;28;19923;-79
2022/06/09 12:23:20;;;;;;;;;;;20.20;95.40;;;;;;5036250;28;19940;-78
2022/06/09 12:25:50;;;;;;;;;;;20.10;95.80;;;;;;5035218;28;19921;-77
2022/06/09 12:28:35;;;;;;;;;;;20.10;96.60;;;;;;5034337;28;19917;-78
2022/06/09 12:31:07;;;;;;;;;;;20.10;96.60;;;;;;5035264;28;19917;-78
2022/06/09 12:33:33;;;;;;;;;;;20.10;96.30;;;;;;5035077;28;20246;-78
2022/06/09 12:36:02;;;;;;;;;;;20.00;94.50;;;;;;5034735;28;20357;-78
2022/06/09 12:38:33;;;;;;;;;;;19.90;95.80;;;;;;5035015;28;19917;-78
2022/06/09 12:41:00;;;;;;;;;;;19.90;96.90;;;;;;5034978;28;19917;-78
2022/06/09 12:43:33;;;;;;;;;;;19.80;96.30;;;;;;5035402;28;19917;-78
2022/06/09 12:46:07;;;;;;;;;;;19.70;96.30;;;;;;5035567;28;20287;-78
2022/06/09 12:48:33;;;;;;;;;;;19.60;95.60;;;;;;5033866;28;19995;-79
2022/06/09 12:50:58;;;;;;;;;;;19.50;95.50;;;;;;5033899;28;19937;-78
2022/06/09 12:53:24;;;;;;;;;;;19.50;95.50;;;;;;5001039;28;20055;-78
2022/06/09 12:55:52;;;;;;;;;;;19.50;96.90;;;;;;5034845;28;19963;-78
2022/06/09 12:58:19;;;;;;;;;;;19.40;96.90;;;;;;5034862;28;19968;-78
2022/06/09 13:00:46;;;;;;;;;;;19.40;96.30;;;;;;5034806;28;19917;-78
2022/06/09 13:03:29;;;;;;;;;;;19.50;96.70;;;;;;5035178;28;19987;-78
2022/06/09 13:05:55;;;;;;;;;;;19.60;96.80;;;;;;5034591;28;19924;-78
2022/06/09 13:08:25;;;;;;;;;;;19.80;96.60;;;;;;5034536;28;19917;-78
2022/06/09 13:10:55;;;;;;;;;;;20.00;95.70;;;;;;5017229;28;19970;-78
2022/06/09 13:13:25;;;;;;;;;;;20.00;95.40;;;;;;5016980;28;20368;-78
2022/06/09 13:15:57;;;;;;;;;;;20.00;95.50;;;;;;5034555;28;20288;-78
2022/06/09 13:18:28;;;;;;;;;;;20.10;96.00;;;;;;5033266;28;19917;-78
2022/06/09 13:20:58;;;;;;;;;;;20.10;96.00;;;;;;5033833;28;20352;-78
2022/06/09 13:23:23;;;;;;;;;;;20.10;93.90;;;;;;5033398;28;19916;-78
2022/06/09 13:25:49;;;;;;;;;;;19.90;93.70;;;;;;5033156;28;20007;-78
2022/06/09 13:28:23;;;;;;;;;;;19.80;94.90;;;;;;5000713;28;19980;-78
2022/06/09 13:30:49;;;;;;;;;;;19.70;95.90;;;;;;5034029;28;19917;-78
2022/06/09 13:33:25;;;;;;;;;;;19.70;96.90;;;;;;5033191;28;20000;-78
2022/06/09 13:35:51;;;;;;;;;;;19.70;96.50;;;;;;5034555;28;19963;-78
2022/06/09 13:38:17;;;;;;;;;;;19.70;95.80;;;;;;5034537;28;19917;-78
2022/06/09 13:40:48;;;;;;;;;;;19.80;96.50;;;;;;5034173;28;19917;-78
2022/06/09 13:43:15;;;;;;;;;;;19.80;94.90;;;;;;5032989;28;19924;-78
2022/06/09 13:45:41;;;;;;;;;;;19.80;93.60;;;;;;5016421;28;19924;-78
2022/06/09 13:48:06;;;;;;;;;;;19.80;94.00;;;;;;5034147;28;19917;-78
2022/06/09 13:50:33;;;;;;;;;;;19.80;92.70;;;;;;5016649;28;19921;-78
2022/06/09 13:53:14;;;;;;;;;;;19.90;94.20;;;;;;5033990;28;19917;-79
2022/06/09 13:55:40;;;;;;;;;;;19.90;93.90;;;;;;5038269;28;19917;-79
2022/06/09 13:58:08;;;;;;;;;;;19.90;93.50;;;;;;5037005;28;19917;-78
2022/06/09 14:00:38;;;;;;;;;;;19.90;92.90;;;;;;5037575;28;19917;-78
2022/06/09 14:03:25;;;;;;;;;;;19.90;93.50;;;;;;5022802;28;19984;-79
2022/06/09 14:05:51;;;;;;;;;;;19.90;92.90;;;;;;5061915;28;19944;-78
2022/06/09 14:08:17;;;;;;;;;;;19.90;93.10;;;;;;5060976;28;19917;-78
2022/06/09 14:10:42;;;;;;;;;;;19.90;92.90;;;;;;5057003;28;19917;-78
2022/06/09 14:13:08;;;;;;;;;;;19.90;93.00;;;;;;5053546;28;19917;-78
2022/06/09 14:15:34;;;;;;;;;;;19.90;90.80;;;;;;5061632;28;19911;-82
2022/06/09 14:17:59;;;;;;;;;;;19.80;92.50;;;;;;5061812;28;19905;-78
2022/06/09 14:20:29;;;;;;;;;;;19.80;92.90;;;;;;5062259;28;19928;-78
2022/06/09 14:22:55;;;;;;;;;;;19.70;93.50;;;;;;5062174;28;19905;-78
2022/06/09 14:25:21;;;;;;;;;;;19.80;93.20;;;;;;5061614;28;20030;-78
2022/06/09 14:27:47;;;;;;;;;;;19.80;92.20;;;;;;5048585;28;19917;-78
2022/06/09 14:30:16;;;;;;;;;;;19.80;93.50;;;;;;5019902;28;19924;-78
2022/06/09 14:32:42;;;;;;;;;;;19.70;93.20;;;;;;5020947;28;19920;-78
2022/06/09 14:35:08;;;;;;;;;;;19.80;92.50;;;;;;5038253;28;19917;-78
2022/06/09 14:37:33;;;;;;;;;;;19.80;92.10;;;;;;5020379;28;19924;-78
2022/06/09 14:39:59;;;;;;;;;;;19.80;92.70;;;;;;5021025;28;19917;-78
2022/06/09 14:42:25;;;;;;;;;;;19.80;93.50;;;;;;5020167;28;19917;-78